createdAt,value
2022-09-28T00:01:24.993Z,7.88
2022-09-28T00:11:30.644Z,7.88
2022-09-28T00:21:35.396Z,7.80
2022-09-28T00:31:37.692Z,7.75
2022-09-28T00:41:40.485Z,7.82
2022-09-28T00:51:44.740Z,7.91
2022-09-28T01:01:47.280Z,8.02
2022-09-28T01:11:49.581Z,7.95
2022-09-28T01:22:10.092Z,8.03
2022-09-28T01:32:42.021Z,8.09
2022-09-28T01:42:47.048Z,8.07
2022-09-28T01:52:59.760Z,8.02
2022-09-28T02:03:26.057Z,7.80
2022-09-28T02:13:36.846Z,7.68
2022-09-28T02:23:42.914Z,7.37
2022-09-28T02:33:46.669Z,7.13
2022-09-28T02:44:24.266Z,6.95
2022-09-28T02:54:44.835Z,6.62
2022-09-28T03:05:14.828Z,6.39
2022-09-28T03:15:20.101Z,6.22
2022-09-28T03:25:22.378Z,6.02
2022-09-28T03:35:24.651Z,5.95
2022-09-28T03:45:27.230Z,5.99
2022-09-28T03:55:29.550Z,6.12
2022-09-28T04:05:31.817Z,6.31
2022-09-28T04:15:34.102Z,6.52
2022-09-28T04:25:36.338Z,6.72
2022-09-28T04:35:38.654Z,6.71
2022-09-28T04:45:40.957Z,6.53
2022-09-28T04:55:43.386Z,6.54
2022-09-28T05:05:46.307Z,6.56
2022-09-28T05:15:58.083Z,6.56
2022-09-28T05:26:03.022Z,6.65
2022-09-28T05:36:05.482Z,6.70
2022-09-28T05:46:08.366Z,6.82
2022-09-28T05:56:10.841Z,7.02
2022-09-28T06:06:13.167Z,7.21
2022-09-28T06:16:16.825Z,7.48
2022-09-28T06:26:19.228Z,7.85
2022-09-28T06:36:22.385Z,7.98
2022-09-28T06:46:25.719Z,8.22
2022-09-28T06:56:32.745Z,8.49
2022-09-28T07:06:35.397Z,8.64
2022-09-28T07:17:05.630Z,8.69
2022-09-28T07:27:04.679Z,8.96
2022-09-28T07:37:11.685Z,9.15
2022-09-28T07:47:14.265Z,9.38
2022-09-28T07:57:16.584Z,9.65
2022-09-28T08:07:22.908Z,9.98
2022-09-28T08:17:26.252Z,9.97
2022-09-28T08:27:28.703Z,10.04
2022-09-28T08:37:30.980Z,10.06
2022-09-28T08:48:20.741Z,10.03
2022-09-28T08:58:36.261Z,10.00
2022-09-28T09:08:44.191Z,9.99
2022-09-28T09:19:12.324Z,9.91
2022-09-28T09:29:37.730Z,9.72
2022-09-28T09:40:01.333Z,9.69
2022-09-28T09:50:30.785Z,9.89
2022-09-28T10:00:34.221Z,10.22
2022-09-28T10:10:54.370Z,10.30
2022-09-28T10:20:56.724Z,10.39
2022-09-28T10:30:59.199Z,10.20
2022-09-28T10:41:10.628Z,10.11
2022-09-28T10:51:12.877Z,9.72
2022-09-28T11:01:18.882Z,9.73
2022-09-28T11:11:21.439Z,9.84
2022-09-28T11:21:43.058Z,10.01
2022-09-28T11:31:46.842Z,10.03
2022-09-28T11:42:16.081Z,10.45
2022-09-28T11:52:25.540Z,10.84
2022-09-28T12:02:36.587Z,11.70
2022-09-28T12:12:49.718Z,12.05
2022-09-28T12:23:00.498Z,12.02
2022-09-28T12:33:09.367Z,12.66
2022-09-28T12:43:25.394Z,12.95
2022-09-28T12:53:49.047Z,13.10
2022-09-28T13:04:12.777Z,12.98
2022-09-28T13:14:46.626Z,12.83
2022-09-28T13:24:50.683Z,12.89
2022-09-28T13:34:54.960Z,12.80
2022-09-28T13:45:16.137Z,12.95
2022-09-28T13:55:25.145Z,12.49
2022-09-28T14:05:30.418Z,12.56
2022-09-28T14:15:35.439Z,12.66
2022-09-28T14:25:58.998Z,12.85
2022-09-28T14:36:05.473Z,13.04
2022-09-28T14:46:22.946Z,12.89
2022-09-28T14:56:32.483Z,12.56
2022-09-28T15:06:46.615Z,12.49
2022-09-28T15:16:48.967Z,11.92
2022-09-28T15:26:51.300Z,11.55
2022-09-28T15:36:56.546Z,11.70
2022-09-28T15:47:16.965Z,11.70
2022-09-28T15:57:40.516Z,11.48
2022-09-28T16:07:56.145Z,10.73
2022-09-28T16:18:02.809Z,10.19
2022-09-28T16:28:07.060Z,9.96
2022-09-28T16:38:16.666Z,9.86
2022-09-28T16:48:26.657Z,9.49
2022-09-28T16:58:31.390Z,9.13
2022-09-28T17:08:35.782Z,8.87
2022-09-28T17:18:39.870Z,8.57
2022-09-28T17:28:42.214Z,8.51
2022-09-28T17:38:45.605Z,8.36
2022-09-28T17:48:47.983Z,8.01
2022-09-28T17:58:50.560Z,7.63
2022-09-28T18:08:52.827Z,6.92
2022-09-28T18:18:55.259Z,6.57
2022-09-28T18:28:57.559Z,6.26
2022-09-28T18:39:01.135Z,6.04
2022-09-28T18:49:04.785Z,5.79
2022-09-28T18:59:11.917Z,5.51
2022-09-28T19:09:15.017Z,5.23
2022-09-28T19:19:18.925Z,4.95
2022-09-28T19:29:21.935Z,4.77
2022-09-28T19:39:24.285Z,4.57
2022-09-28T19:49:28.337Z,4.36
2022-09-28T19:59:30.636Z,4.26
2022-09-28T20:09:33.197Z,4.10
2022-09-28T20:19:36.267Z,4.16
2022-09-28T20:29:38.566Z,4.08
2022-09-28T20:40:11.568Z,4.01
2022-09-28T20:50:13.946Z,4.01
2022-09-28T21:00:16.350Z,3.90
2022-09-28T21:10:18.623Z,3.93
2022-09-28T21:20:20.861Z,3.89
2022-09-28T21:30:23.325Z,3.86
2022-09-28T21:50:27.969Z,3.78
2022-09-28T22:10:14.741Z,3.69
2022-09-28T22:20:17.235Z,3.62
2022-09-28T22:30:19.494Z,3.62
2022-09-28T22:40:21.794Z,3.86
2022-09-28T22:50:24.131Z,4.13
2022-09-28T23:00:26.546Z,4.44
2022-09-28T23:10:29.374Z,4.66
2022-09-28T23:20:32.903Z,4.70
2022-09-28T23:30:35.148Z,4.71
2022-09-28T23:40:37.522Z,4.64
2022-09-28T23:50:39.826Z,4.46
